Time;durP1;ratioP1;P1;durP2;ratioP2;P2;SDS_P1;SDS_P2;PMS_P1;PMS_P2;Temp;Humidity;BMP_temperature;BMP_pressure;BME280_temperature;BME280_humidity;BME280_pressure;Samples;Min_cycle;Max_cycle;Signal;HPM_P1;HPM_P2
2024/03/11 00:01:19;;;;;;;5.53;1.33;;;;;;;;;;5046729;28;20069;-83
2024/03/11 00:03:46;;;;;;;6.35;1.27;;;;;;;;;;5012434;28;20285;-84
2024/03/11 00:06:12;;;;;;;5.78;1.92;;;;;;;;;;5012539;28;20029;-84
2024/03/11 00:08:39;;;;;;;6.35;1.88;;;;;;;;;;5014085;28;20754;-85
2024/03/11 00:11:05;;;;;;;5.28;1.52;;;;;;;;;;5021503;28;20095;-84
2024/03/11 00:13:34;;;;;;;4.80;1.30;;;;;;;;;;5027852;28;20037;-84
2024/03/11 00:16:01;;;;;;;5.60;1.30;;;;;;;;;;5027258;28;20040;-84
2024/03/11 00:18:28;;;;;;;5.63;1.38;;;;;;;;;;5005764;28;20034;-84
2024/03/11 00:20:56;;;;;;;5.80;1.30;;;;;;;;;;5011272;28;20049;-84
2024/03/11 00:23:23;;;;;;;5.97;1.50;;;;;;;;;;5003551;28;20036;-84
2024/03/11 00:25:49;;;;;;;6.70;1.50;;;;;;;;;;5016890;28;20025;-83
2024/03/11 00:28:17;;;;;;;5.13;1.40;;;;;;;;;;5008205;28;20029;-82
2024/03/11 00:30:44;;;;;;;8.98;3.53;;;;;;;;;;5010172;28;20027;-82
2024/03/11 00:33:10;;;;;;;6.22;2.10;;;;;;;;;;5013954;28;20122;-82
2024/03/11 00:35:38;;;;;;;4.63;1.30;;;;;;;;;;5006947;28;20029;-84
2024/03/11 00:38:07;;;;;;;7.05;1.42;;;;;;;;;;5030604;28;20045;-83
2024/03/11 00:40:34;;;;;;;4.63;1.15;;;;;;;;;;5035578;28;20048;-84
2024/03/11 00:43:04;;;;;;;4.75;1.02;;;;;;;;;;5042686;28;20044;-83
2024/03/11 00:45:30;;;;;;;5.43;1.20;;;;;;;;;;5042083;28;20100;-84
2024/03/11 00:47:57;;;;;;;9.00;2.90;;;;;;;;;;5045829;28;20038;-85
2024/03/11 00:50:24;;;;;;;4.13;1.30;;;;;;;;;;5042132;28;20029;-84
2024/03/11 00:52:51;;;;;;;5.13;1.20;;;;;;;;;;5039336;28;20029;-83
2024/03/11 00:55:23;;;;;;;3.70;1.25;;;;;;;;;;5032894;28;20063;-83
2024/03/11 00:57:51;;;;;;;6.90;1.20;;;;;;;;;;5047605;28;20110;-85
2024/03/11 01:00:22;;;;;;;6.60;2.10;;;;;;;;;;5043178;28;20042;-85
2024/03/11 01:02:52;;;;;;;6.50;1.50;;;;;;;;;;5043586;28;20032;-85
2024/03/11 01:05:31;;;;;;;;;;;;;;;;;;;;;
2024/03/11 01:08:00;;;;;;;4.55;1.15;;;;;;;;;;5052442;28;20109;-83
2024/03/11 01:10:27;;;;;;;5.15;1.30;;;;;;;;;;5051765;28;20009;-85
2024/03/11 01:12:53;;;;;;;5.90;1.85;;;;;;;;;;5049935;28;20024;-84
2024/03/11 01:15:25;;;;;;;4.68;1.05;;;;;;;;;;5045876;28;20049;-84
2024/03/11 01:17:55;;;;;;;4.35;0.90;;;;;;;;;;5052735;28;20090;-81
2024/03/11 01:20:24;;;;;;;3.88;0.90;;;;;;;;;;5044871;28;20043;-84
2024/03/11 01:22:52;;;;;;;2.22;0.60;;;;;;;;;;5048582;28;20111;-85
2024/03/11 01:25:20;;;;;;;5.88;1.40;;;;;;;;;;5044208;28;20029;-85
2024/03/11 01:27:46;;;;;;;4.32;0.95;;;;;;;;;;5041591;28;20029;-84
2024/03/11 01:30:15;;;;;;;4.72;0.90;;;;;;;;;;5040593;28;20032;-84
2024/03/11 01:32:46;;;;;;;5.38;0.88;;;;;;;;;;5042127;28;20033;-84
2024/03/11 01:35:15;;;;;;;3.88;0.70;;;;;;;;;;5039168;28;20024;-82
2024/03/11 01:37:42;;;;;;;3.03;0.60;;;;;;;;;;5046988;28;20065;-83
2024/03/11 01:40:10;;;;;;;4.75;1.20;;;;;;;;;;5049163;28;20044;-84
2024/03/11 01:42:42;;;;;;;3.00;1.00;;;;;;;;;;5055024;28;20029;-85
2024/03/11 01:45:15;;;;;;;2.40;0.70;;;;;;;;;;5053794;28;20009;-85
2024/03/11 01:47:42;;;;;;;4.55;1.20;;;;;;;;;;5054974;28;20037;-86
2024/03/11 01:50:09;;;;;;;3.97;0.80;;;;;;;;;;5044968;28;20037;-83
2024/03/11 01:52:36;;;;;;;3.38;0.90;;;;;;;;;;5043083;28;20040;-83
2024/03/11 01:55:08;;;;;;;2.85;0.80;;;;;;;;;;5016731;28;20088;-83
2024/03/11 01:57:35;;;;;;;3.75;0.95;;;;;;;;;;5014878;28;20041;-83
2024/03/11 02:00:07;;;;;;;3.30;0.75;;;;;;;;;;5020955;28;20040;-84
2024/03/11 02:02:34;;;;;;;2.53;0.75;;;;;;;;;;5016809;28;20130;-84
2024/03/11 02:05:03;;;;;;;2.70;0.77;;;;;;;;;;5015587;28;20072;-84
2024/03/11 02:07:30;;;;;;;2.08;0.65;;;;;;;;;;5013401;28;20044;-84
2024/03/11 02:09:56;;;;;;;1.95;0.30;;;;;;;;;;5013986;28;20029;-85
2024/03/11 02:12:24;;;;;;;3.55;0.68;;;;;;;;;;5010709;28;20033;-83
2024/03/11 02:14:50;;;;;;;2.88;0.73;;;;;;;;;;5009885;28;20029;-83
2024/03/11 02:17:16;;;;;;;3.20;0.60;;;;;;;;;;5012547;28;20388;-84
2024/03/11 02:19:43;;;;;;;2.92;0.70;;;;;;;;;;5006812;28;20041;-83
2024/03/11 02:22:09;;;;;;;;;;;;;;;;;;5011295;28;20284;-84
2024/03/11 02:24:35;;;;;;;2.72;0.70;;;;;;;;;;5011125;28;20372;-83
2024/03/11 02:27:02;;;;;;;;;;;;;;;;;;5013067;28;20079;-83
2024/03/11 02:29:28;;;;;;;5.63;1.30;;;;;;;;;;5015112;28;19917;-82
2024/03/11 02:31:55;;;;;;;2.58;0.70;;;;;;;;;;5017190;28;20022;-85
2024/03/11 02:34:21;;;;;;;;;;;;;;;;;;5009143;28;20125;-84
2024/03/11 02:36:48;;;;;;;3.92;0.85;;;;;;;;;;5014817;28;19942;-83
2024/03/11 02:39:15;;;;;;;4.13;0.77;;;;;;;;;;5011956;28;20559;-85
2024/03/11 02:41:42;;;;;;;3.45;0.90;;;;;;;;;;5011221;28;20026;-83
2024/03/11 02:44:08;;;;;;;4.55;0.93;;;;;;;;;;5011168;28;20108;-84
2024/03/11 02:46:37;;;;;;;6.57;1.00;;;;;;;;;;5013905;28;20037;-84
2024/03/11 02:49:03;;;;;;;4.18;0.68;;;;;;;;;;5018283;28;20034;-85
2024/03/11 02:51:32;;;;;;;4.65;0.95;;;;;;;;;;5013462;28;20361;-85
2024/03/11 02:53:58;;;;;;;4.03;0.73;;;;;;;;;;5015770;28;20034;-84
2024/03/11 02:56:24;;;;;;;4.65;0.90;;;;;;;;;;5015311;28;21084;-85
2024/03/11 02:58:50;;;;;;;3.88;0.90;;;;;;;;;;5010627;28;20509;-84
2024/03/11 03:01:17;;;;;;;4.28;1.02;;;;;;;;;;5009312;28;20338;-84
2024/03/11 03:03:43;;;;;;;;;;;;;;;;;;5009020;28;20067;-84
2024/03/11 03:06:09;;;;;;;3.13;0.60;;;;;;;;;;5006510;28;20007;-84
2024/03/11 03:08:35;;;;;;;;;;;;;;;;;;5007495;28;20099;-84
2024/03/11 03:11:03;;;;;;;4.38;0.90;;;;;;;;;;5010651;28;19913;-84
2024/03/11 03:13:29;;;;;;;6.30;1.15;;;;;;;;;;5010895;28;20033;-84
2024/03/11 03:15:56;;;;;;;2.83;0.73;;;;;;;;;;5015108;28;20435;-85
2024/03/11 03:18:23;;;;;;;2.92;0.70;;;;;;;;;;5010251;28;20068;-85
2024/03/11 03:20:50;;;;;;;2.78;0.88;;;;;;;;;;5010935;28;20068;-84
2024/03/11 03:23:17;;;;;;;4.30;0.77;;;;;;;;;;5009819;28;20041;-84
2024/03/11 03:25:43;;;;;;;5.70;0.90;;;;;;;;;;5010679;28;20071;-83
2024/03/11 03:28:09;;;;;;;5.07;0.90;;;;;;;;;;5005780;28;20057;-84
2024/03/11 03:30:36;;;;;;;3.78;0.80;;;;;;;;;;5008733;28;20528;-85
2024/03/11 03:33:03;;;;;;;;;;;;;;;;;;5010096;28;20774;-84
2024/03/11 03:35:30;;;;;;;3.60;0.70;;;;;;;;;;5013445;28;19927;-84
2024/03/11 03:37:56;;;;;;;6.85;1.00;;;;;;;;;;5011186;28;20152;-84
2024/03/11 03:40:25;;;;;;;3.25;0.73;;;;;;;;;;5006645;28;20034;-84
2024/03/11 03:42:54;;;;;;;3.45;0.77;;;;;;;;;;5011033;28;20467;-84
2024/03/11 03:45:21;;;;;;;4.40;0.65;;;;;;;;;;5007670;28;20029;-84
2024/03/11 03:47:47;;;;;;;3.53;0.75;;;;;;;;;;5009405;28;20117;-84
2024/03/11 03:50:14;;;;;;;5.05;0.90;;;;;;;;;;5007944;28;20103;-85
2024/03/11 03:52:41;;;;;;;4.32;0.90;;;;;;;;;;5013989;28;20034;-83
2024/03/11 03:55:11;;;;;;;6.50;1.00;;;;;;;;;;5011645;28;20034;-83
2024/03/11 03:57:40;;;;;;;3.00;0.70;;;;;;;;;;5015206;28;20033;-83
2024/03/11 04:00:15;;;;;;;5.28;0.80;;;;;;;;;;5009868;28;20036;-83
2024/03/11 04:02:41;;;;;;;4.82;0.73;;;;;;;;;;5017963;28;20013;-83
2024/03/11 04:05:07;;;;;;;;;;;;;;;;;;5018274;28;20037;-83
2024/03/11 04:07:34;;;;;;;3.90;0.80;;;;;;;;;;5028052;28;20008;-84
2024/03/11 04:10:00;;;;;;;3.47;0.75;;;;;;;;;;5020250;28;20053;-82
2024/03/11 04:12:28;;;;;;;4.80;0.95;;;;;;;;;;5017141;28;20082;-85
2024/03/11 04:14:55;;;;;;;4.57;0.77;;;;;;;;;;5019561;28;20103;-83
2024/03/11 04:17:22;;;;;;;4.70;0.90;;;;;;;;;;5016240;28;20698;-83
2024/03/11 04:19:48;;;;;;;2.88;0.68;;;;;;;;;;5022060;28;20026;-81
2024/03/11 04:22:14;;;;;;;3.45;0.80;;;;;;;;;;5018256;28;20029;-85
2024/03/11 04:24:41;;;;;;;;;;;;;;;;;;5021216;28;20029;-85
2024/03/11 04:27:11;;;;;;;4.63;0.73;;;;;;;;;;5023909;28;19916;-83
2024/03/11 04:29:37;;;;;;;3.65;0.60;;;;;;;;;;5024408;28;20094;-85
2024/03/11 04:32:03;;;;;;;5.53;1.10;;;;;;;;;;5022103;28;20275;-84
2024/03/11 04:34:29;;;;;;;5.05;0.80;;;;;;;;;;5018475;28;20452;-85
2024/03/11 04:36:56;;;;;;;4.22;0.73;;;;;;;;;;5016663;28;20056;-83
2024/03/11 04:39:22;;;;;;;1.95;0.60;;;;;;;;;;5008334;28;20033;-83
2024/03/11 04:41:48;;;;;;;4.10;0.80;;;;;;;;;;5013810;28;20052;-83
2024/03/11 04:44:14;;;;;;;4.68;0.90;;;;;;;;;;5008871;28;20606;-84
2024/03/11 04:46:40;;;;;;;4.13;0.90;;;;;;;;;;5014337;28;20033;-85
2024/03/11 04:49:07;;;;;;;4.72;0.80;;;;;;;;;;4992213;28;20045;-85
2024/03/11 04:51:33;;;;;;;3.60;0.65;;;;;;;;;;5009693;28;20379;-84
2024/03/11 04:54:00;;;;;;;5.88;0.95;;;;;;;;;;5014902;28;20029;-84
2024/03/11 04:56:30;;;;;;;5.47;0.80;;;;;;;;;;5004199;28;20021;-85
2024/03/11 04:58:57;;;;;;;3.38;0.73;;;;;;;;;;5012352;28;20060;-85
2024/03/11 05:01:23;;;;;;;4.07;0.82;;;;;;;;;;5016803;28;20104;-84
2024/03/11 05:03:50;;;;;;;3.38;0.70;;;;;;;;;;5015847;28;20032;-84
2024/03/11 05:06:16;;;;;;;4.22;0.60;;;;;;;;;;5013912;28;20029;-84
2024/03/11 05:08:42;;;;;;;1.95;0.70;;;;;;;;;;5018139;28;20029;-85
2024/03/11 05:11:08;;;;;;;5.20;0.85;;;;;;;;;;5016424;28;20520;-85
2024/03/11 05:13:35;;;;;;;3.50;0.63;;;;;;;;;;5018423;28;20041;-84
2024/03/11 05:16:01;;;;;;;4.15;0.60;;;;;;;;;;5019390;28;20120;-84
2024/03/11 05:18:28;;;;;;;3.22;0.70;;;;;;;;;;5008536;28;20037;-84
2024/03/11 05:20:55;;;;;;;3.95;0.70;;;;;;;;;;5008682;28;20128;-84
2024/03/11 05:23:21;;;;;;;2.28;0.60;;;;;;;;;;5010408;28;20033;-84
2024/03/11 05:25:47;;;;;;;3.58;0.70;;;;;;;;;;5013414;28;20172;-83
2024/03/11 05:28:13;;;;;;;;;;;;;;;;;;5009719;28;20100;-85
2024/03/11 05:30:40;;;;;;;3.35;0.70;;;;;;;;;;5010763;28;20015;-83
2024/03/11 05:33:06;;;;;;;3.60;0.60;;;;;;;;;;5011321;28;20033;-83
2024/03/11 05:35:32;;;;;;;3.53;0.70;;;;;;;;;;5014522;28;20021;-83
2024/03/11 05:38:00;;;;;;;4.35;0.90;;;;;;;;;;5022293;28;20048;-84
2024/03/11 05:40:26;;;;;;;2.33;0.70;;;;;;;;;;5020916;28;20029;-85
2024/03/11 05:42:52;;;;;;;2.28;0.70;;;;;;;;;;5018027;28;20025;-87
2024/03/11 05:45:18;;;;;;;2.78;0.60;;;;;;;;;;5017121;28;20053;-85
2024/03/11 05:47:47;;;;;;;;;;;;;;;;;;5022300;28;20136;-85
2024/03/11 05:50:16;;;;;;;4.10;0.90;;;;;;;;;;5016912;28;19909;-84
2024/03/11 05:52:45;;;;;;;2.45;0.70;;;;;;;;;;5016514;28;20986;-85
2024/03/11 05:55:11;;;;;;;3.95;0.80;;;;;;;;;;5014879;28;20039;-85
2024/03/11 05:57:39;;;;;;;5.95;1.10;;;;;;;;;;5018159;28;20030;-85
2024/03/11 06:00:09;;;;;;;6.32;1.20;;;;;;;;;;5014751;28;20029;-85
2024/03/11 06:02:36;;;;;;;7.72;1.10;;;;;;;;;;4999757;28;20173;-84
2024/03/11 06:05:04;;;;;;;6.18;0.90;;;;;;;;;;5012415;28;20045;-83
2024/03/11 06:07:30;;;;;;;6.00;1.00;;;;;;;;;;5026134;28;20021;-83
2024/03/11 06:09:58;;;;;;;6.10;1.00;;;;;;;;;;5010453;28;20718;-84
2024/03/11 06:12:24;;;;;;;3.83;1.00;;;;;;;;;;5012598;28;20052;-83
2024/03/11 06:14:51;;;;;;;6.45;1.13;;;;;;;;;;5010167;28;20052;-83
2024/03/11 06:17:17;;;;;;;4.78;1.20;;;;;;;;;;5005914;28;20059;-84
2024/03/11 06:19:44;;;;;;;5.68;1.00;;;;;;;;;;5015443;28;20037;-84
2024/03/11 06:22:11;;;;;;;5.57;1.00;;;;;;;;;;5015673;28;20040;-83
2024/03/11 06:24:38;;;;;;;7.22;1.42;;;;;;;;;;5013759;28;20036;-83
2024/03/11 06:27:04;;;;;;;7.13;1.30;;;;;;;;;;5012203;28;20043;-84
2024/03/11 06:29:30;;;;;;;7.07;1.38;;;;;;;;;;5011841;28;20056;-84
2024/03/11 06:31:58;;;;;;;6.35;1.30;;;;;;;;;;5014751;28;20168;-83
2024/03/11 06:34:26;;;;;;;6.90;1.13;;;;;;;;;;5012473;28;23126;-85
2024/03/11 06:36:52;;;;;;;8.93;1.60;;;;;;;;;;5031114;28;20041;-84
2024/03/11 06:39:19;;;;;;;9.35;1.60;;;;;;;;;;5028719;28;20032;-83
2024/03/11 06:41:45;;;;;;;6.30;1.73;;;;;;;;;;5029472;28;20834;-85
2024/03/11 06:44:11;;;;;;;7.40;1.80;;;;;;;;;;5023421;28;20029;-83
2024/03/11 06:46:38;;;;;;;8.23;1.50;;;;;;;;;;5019517;28;20030;-84
2024/03/11 06:49:05;;;;;;;5.10;1.40;;;;;;;;;;5022436;28;20034;-82
2024/03/11 06:51:31;;;;;;;6.43;1.60;;;;;;;;;;5020783;28;20022;-83
2024/03/11 06:54:00;;;;;;;;;;;;;;;;;;5016570;28;20032;-84
2024/03/11 06:56:27;;;;;;;5.78;1.40;;;;;;;;;;5019718;28;19918;-83
2024/03/11 06:58:54;;;;;;;7.30;1.40;;;;;;;;;;5028851;28;20028;-83
2024/03/11 07:01:20;;;;;;;;;;;;;;;;;;5018900;28;20037;-83
2024/03/11 07:03:46;;;;;;;5.47;1.10;;;;;;;;;;5016207;28;19967;-83
2024/03/11 07:06:12;;;;;;;4.93;0.98;;;;;;;;;;5013023;28;20102;-81
2024/03/11 07:08:38;;;;;;;;;;;;;;;;;;5016676;28;20079;-83
2024/03/11 07:11:05;;;;;;;7.43;1.10;;;;;;;;;;5012049;28;19917;-84
2024/03/11 07:13:32;;;;;;;4.53;1.00;;;;;;;;;;5010853;28;20025;-84
2024/03/11 07:15:58;;;;;;;;;;;;;;;;;;5011487;28;20037;-81
2024/03/11 07:18:26;;;;;;;4.32;0.93;;;;;;;;;;5007692;28;20197;-79
2024/03/11 07:20:57;;;;;;;3.13;0.73;;;;;;;;;;5008957;28;20595;-78
2024/03/11 07:23:28;;;;;;;3.35;0.80;;;;;;;;;;5006231;28;20723;-78
2024/03/11 07:26:00;;;;;;;3.55;1.00;;;;;;;;;;5009684;28;20816;-78
2024/03/11 07:28:27;;;;;;;4.47;1.00;;;;;;;;;;5012268;28;20041;-78
2024/03/11 07:30:53;;;;;;;3.10;0.85;;;;;;;;;;5009073;28;20456;-79
2024/03/11 07:33:20;;;;;;;4.13;0.85;;;;;;;;;;5006663;28;20078;-78
2024/03/11 07:35:48;;;;;;;4.63;1.20;;;;;;;;;;5012498;28;20033;-78
2024/03/11 07:38:14;;;;;;;4.43;0.88;;;;;;;;;;5011920;28;20875;-78
2024/03/11 07:40:44;;;;;;;4.65;0.93;;;;;;;;;;5014178;28;20041;-78
2024/03/11 07:43:12;;;;;;;4.38;0.93;;;;;;;;;;5011461;28;20033;-80
2024/03/11 07:45:39;;;;;;;5.97;1.08;;;;;;;;;;5012789;28;20037;-77
2024/03/11 07:48:06;;;;;;;5.25;0.90;;;;;;;;;;5013327;28;20044;-78
2024/03/11 07:50:33;;;;;;;3.97;1.00;;;;;;;;;;5016615;28;20028;-78
2024/03/11 07:52:59;;;;;;;;;;;;;;;;;;5019737;28;20021;-80
2024/03/11 07:55:28;;;;;;;3.97;1.00;;;;;;;;;;5006502;28;19925;-78
2024/03/11 07:57:55;;;;;;;4.40;1.00;;;;;;;;;;5012882;28;20030;-79
2024/03/11 08:00:29;;;;;;;;;;;;;;;;;;5015214;28;20033;-77
2024/03/11 08:02:55;;;;;;;3.72;1.00;;;;;;;;;;5015053;28;19914;-77
2024/03/11 08:05:22;;;;;;;3.53;1.05;;;;;;;;;;5013266;28;20547;-77
2024/03/11 08:07:49;;;;;;;3.72;0.95;;;;;;;;;;5013488;28;20043;-78
2024/03/11 08:10:15;;;;;;;3.10;0.82;;;;;;;;;;5006134;28;20025;-80
2024/03/11 08:12:43;;;;;;;4.20;1.00;;;;;;;;;;5011131;28;20111;-79
2024/03/11 08:15:13;;;;;;;4.30;0.70;;;;;;;;;;5011761;28;20097;-78
2024/03/11 08:17:42;;;;;;;4.15;0.80;;;;;;;;;;5011406;28;20554;-78
2024/03/11 08:20:09;;;;;;;3.92;1.00;;;;;;;;;;5009082;28;20558;-79
2024/03/11 08:22:47;;;;;;;5.13;0.95;;;;;;;;;;5013706;28;20048;-78
2024/03/11 08:25:14;;;;;;;4.45;1.20;;;;;;;;;;5009888;28;20028;-79
2024/03/11 08:27:41;;;;;;;4.20;1.17;;;;;;;;;;5006444;28;20207;-79
2024/03/11 08:30:10;;;;;;;;;;;;;;;;;;4996290;28;20021;-78
2024/03/11 08:32:37;;;;;;;4.60;1.00;;;;;;;;;;4995534;28;19920;-77
2024/03/11 08:35:03;;;;;;;4.65;1.13;;;;;;;;;;5001671;28;20064;-79
2024/03/11 08:37:29;;;;;;;3.20;0.88;;;;;;;;;;5011029;28;20045;-80
2024/03/11 08:39:56;;;;;;;;;;;;;;;;;;5004858;28;20041;-79
2024/03/11 08:42:23;;;;;;;4.97;1.02;;;;;;;;;;5008336;28;19913;-78
2024/03/11 08:44:53;;;;;;;3.75;0.98;;;;;;;;;;5007388;28;20080;-79
2024/03/11 08:47:20;;;;;;;4.45;1.10;;;;;;;;;;5012533;28;20029;-79
2024/03/11 08:49:46;;;;;;;5.63;1.13;;;;;;;;;;5010077;28;20021;-78
2024/03/11 08:52:17;;;;;;;;;;;;;;;;;;5011059;28;20128;-79
2024/03/11 08:54:43;;;;;;;2.20;0.80;;;;;;;;;;5012946;28;19970;-79
2024/03/11 08:57:12;;;;;;;6.00;1.02;;;;;;;;;;5008807;28;20038;-80
2024/03/11 08:59:39;;;;;;;4.25;0.90;;;;;;;;;;5011618;28;20295;-78
2024/03/11 09:02:07;;;;;;;4.38;1.00;;;;;;;;;;5009836;28;20951;-80
2024/03/11 09:04:36;;;;;;;4.60;0.88;;;;;;;;;;5009344;28;20999;-80
2024/03/11 09:07:04;;;;;;;4.38;1.13;;;;;;;;;;5012289;28;20627;-79
2024/03/11 09:09:30;;;;;;;4.60;1.20;;;;;;;;;;5010766;28;20044;-78
2024/03/11 09:11:57;;;;;;;5.53;1.17;;;;;;;;;;5012001;28;20124;-78
2024/03/11 09:14:25;;;;;;;3.75;1.08;;;;;;;;;;5008283;28;20469;-78
2024/03/11 09:16:55;;;;;;;3.47;1.00;;;;;;;;;;5012473;28;20064;-80
2024/03/11 09:19:24;;;;;;;4.25;0.85;;;;;;;;;;5006531;28;20408;-78
2024/03/11 09:21:51;;;;;;;3.50;0.90;;;;;;;;;;5007906;28;20048;-79
2024/03/11 09:24:17;;;;;;;6.10;0.90;;;;;;;;;;4999300;28;20621;-78
2024/03/11 09:26:45;;;;;;;4.70;0.80;;;;;;;;;;5009003;28;20046;-81
2024/03/11 09:29:15;;;;;;;3.53;0.90;;;;;;;;;;5002396;28;20636;-79
2024/03/11 09:31:46;;;;;;;6.22;1.35;;;;;;;;;;5020267;28;20097;-80
2024/03/11 09:34:12;;;;;;;5.10;1.00;;;;;;;;;;5020326;28;20036;-89
2024/03/11 09:36:39;;;;;;;5.45;1.20;;;;;;;;;;5022981;28;20037;-86
2024/03/11 09:39:06;;;;;;;6.38;0.93;;;;;;;;;;5011065;28;20059;-79
2024/03/11 09:41:40;;;;;;;2.92;0.90;;;;;;;;;;5007388;28;20452;-79
2024/03/11 09:44:11;;;;;;;3.00;0.73;;;;;;;;;;5004459;28;20037;-78
2024/03/11 09:46:40;;;;;;;4.97;1.10;;;;;;;;;;5007195;28;20575;-82
2024/03/11 09:49:07;;;;;;;4.03;0.88;;;;;;;;;;4995773;28;20100;-78
2024/03/11 09:51:33;;;;;;;4.97;1.00;;;;;;;;;;5009856;28;20372;-79
2024/03/11 09:54:00;;;;;;;5.97;1.08;;;;;;;;;;5021433;28;21260;-78
2024/03/11 09:56:27;;;;;;;4.20;1.02;;;;;;;;;;5021325;28;20079;-76
2024/03/11 09:58:57;;;;;;;5.10;1.10;;;;;;;;;;5014260;28;20101;-78
2024/03/11 10:01:32;;;;;;;3.15;0.75;;;;;;;;;;4999435;28;20034;-78
2024/03/11 10:03:59;;;;;;;5.18;1.05;;;;;;;;;;5005659;28;20037;-78
2024/03/11 10:06:30;;;;;;;4.32;0.95;;;;;;;;;;5008783;28;20033;-77
2024/03/11 10:08:57;;;;;;;8.48;1.33;;;;;;;;;;5021771;28;20034;-78
2024/03/11 10:11:28;;;;;;;7.75;1.40;;;;;;;;;;5015028;28;20044;-77
2024/03/11 10:13:58;;;;;;;4.63;1.00;;;;;;;;;;5016308;28;20034;-77
2024/03/11 10:16:26;;;;;;;2.40;0.80;;;;;;;;;;5019414;28;20026;-78
2024/03/11 10:19:00;;;;;;;5.53;1.10;;;;;;;;;;5013781;28;20040;-76
2024/03/11 10:21:28;;;;;;;5.45;0.98;;;;;;;;;;5007848;28;20030;-77
2024/03/11 10:23:58;;;;;;;3.28;0.85;;;;;;;;;;5009242;28;20044;-79
2024/03/11 10:26:27;;;;;;;7.15;1.30;;;;;;;;;;5016035;28;20030;-77
2024/03/11 10:28:56;;;;;;;6.75;1.20;;;;;;;;;;5022016;28;20097;-77
2024/03/11 10:31:27;;;;;;;5.60;1.20;;;;;;;;;;5011200;28;20029;-76
2024/03/11 10:33:56;;;;;;;4.53;0.98;;;;;;;;;;5010871;28;20063;-77
2024/03/11 10:36:25;;;;;;;5.70;1.15;;;;;;;;;;5009800;28;20824;-79
2024/03/11 10:38:54;;;;;;;6.15;1.20;;;;;;;;;;5009384;28;20039;-77
2024/03/11 10:41:21;;;;;;;2.38;0.77;;;;;;;;;;5010432;28;20143;-79
2024/03/11 10:43:54;;;;;;;3.15;0.85;;;;;;;;;;5013058;28;20048;-76
2024/03/11 10:46:20;;;;;;;4.82;1.20;;;;;;;;;;5005928;28;20250;-77
2024/03/11 10:48:51;;;;;;;5.70;1.13;;;;;;;;;;5006510;28;20055;-78
2024/03/11 10:51:21;;;;;;;4.55;0.98;;;;;;;;;;5000109;28;20025;-78
2024/03/11 10:53:52;;;;;;;8.02;1.00;;;;;;;;;;5006612;28;20021;-76
2024/03/11 10:56:24;;;;;;;5.68;1.00;;;;;;;;;;5007311;28;20103;-77
2024/03/11 10:58:54;;;;;;;4.88;1.02;;;;;;;;;;5012102;28;20040;-78
2024/03/11 11:01:39;;;;;;;5.40;1.10;;;;;;;;;;5008805;28;20041;-78
2024/03/11 11:04:13;;;;;;;4.20;1.00;;;;;;;;;;5011437;28;20060;-77
2024/03/11 11:06:47;;;;;;;6.15;0.90;;;;;;;;;;5015984;28;20136;-77
2024/03/11 11:09:14;;;;;;;5.22;0.82;;;;;;;;;;5012329;28;20100;-77
2024/03/11 11:11:51;;;;;;;5.40;1.30;;;;;;;;;;5012100;28;20031;-79
2024/03/11 11:14:20;;;;;;;5.50;0.93;;;;;;;;;;5006028;28;20029;-77
2024/03/11 11:16:49;;;;;;;5.80;1.10;;;;;;;;;;5005835;28;20120;-78
2024/03/11 11:19:19;;;;;;;6.03;1.00;;;;;;;;;;5001377;28;20132;-78
2024/03/11 11:21:45;;;;;;;5.45;0.90;;;;;;;;;;5003969;28;20057;-77
2024/03/11 11:24:31;;;;;;;3.42;0.90;;;;;;;;;;5002565;28;20057;-77
2024/03/11 11:26:58;;;;;;;3.97;0.90;;;;;;;;;;5002082;28;20044;-78
2024/03/11 11:29:25;;;;;;;3.47;1.00;;;;;;;;;;5000457;28;20474;-76
2024/03/11 11:32:00;;;;;;;3.67;0.95;;;;;;;;;;5005129;28;20017;-76
2024/03/11 11:34:55;;;;;;;4.13;0.93;;;;;;;;;;5005405;28;20539;-77
2024/03/11 11:37:22;;;;;;;6.65;1.00;;;;;;;;;;5006062;28;20135;-77
2024/03/11 11:39:51;;;;;;;4.18;1.00;;;;;;;;;;5001272;28;20164;-76
2024/03/11 11:42:40;;;;;;;4.78;1.20;;;;;;;;;;5000333;28;20033;-77
2024/03/11 11:45:11;;;;;;;5.03;0.88;;;;;;;;;;5002011;28;20041;-77
2024/03/11 11:47:43;;;;;;;4.45;1.00;;;;;;;;;;5003929;28;20504;-79
2024/03/11 11:50:30;;;;;;;5.32;1.20;;;;;;;;;;5004003;28;20029;-78
2024/03/11 11:53:03;;;;;;;8.82;1.13;;;;;;;;;;5002383;28;20061;-80
2024/03/11 11:55:29;;;;;;;4.15;0.90;;;;;;;;;;5001014;28;20014;-76
2024/03/11 11:58:07;;;;;;;3.13;0.80;;;;;;;;;;4999825;28;20110;-77
2024/03/11 12:00:35;;;;;;;5.32;1.20;;;;;;;;;;5007782;28;20454;-78
2024/03/11 12:03:05;;;;;;;7.57;1.40;;;;;;;;;;5011251;28;20071;-76
2024/03/11 12:05:31;;;;;;;5.75;1.40;;;;;;;;;;5009518;28;20025;-77
2024/03/11 12:07:57;;;;;;;4.82;1.10;;;;;;;;;;5008289;28;20033;-75
2024/03/11 12:10:24;;;;;;;4.43;1.13;;;;;;;;;;5005874;28;20543;-76
2024/03/11 12:12:54;;;;;;;4.70;0.98;;;;;;;;;;5013326;28;20057;-76
2024/03/11 12:15:21;;;;;;;5.90;1.60;;;;;;;;;;5009477;28;20068;-78
2024/03/11 12:17:48;;;;;;;5.03;1.35;;;;;;;;;;5009175;28;20029;-76
2024/03/11 12:22:57;;;;;;;4.55;1.10;;;;;;;;;;5015979;28;20047;-76
2024/03/11 12:25:28;;;;;;;6.82;1.45;;;;;;;;;;5010302;28;20071;-76
2024/03/11 12:27:56;;;;;;;7.10;1.58;;;;;;;;;;5010927;28;20037;-77
2024/03/11 12:30:27;;;;;;;6.47;1.67;;;;;;;;;;5007163;28;20113;-76
2024/03/11 12:32:57;;;;;;;7.13;1.85;;;;;;;;;;5014761;28;20024;-76
2024/03/11 12:35:28;;;;;;;5.88;1.40;;;;;;;;;;5007830;28;20154;-76
2024/03/11 12:37:54;;;;;;;5.93;1.48;;;;;;;;;;5006699;28;20049;-77
2024/03/11 12:40:20;;;;;;;5.40;1.13;;;;;;;;;;5001459;28;20048;-77
2024/03/11 12:42:52;;;;;;;3.80;0.98;;;;;;;;;;5003530;28;20065;-76
2024/03/11 12:45:18;;;;;;;7.10;1.30;;;;;;;;;;4999635;28;20025;-76
2024/03/11 12:47:44;;;;;;;5.20;1.10;;;;;;;;;;5006140;28;20033;-77
2024/03/11 12:50:11;;;;;;;4.70;1.20;;;;;;;;;;5000004;28;20772;-77
2024/03/11 12:52:41;;;;;;;7.47;1.88;;;;;;;;;;4996730;28;20038;-77
2024/03/11 12:55:11;;;;;;;5.60;1.10;;;;;;;;;;5000858;28;20033;-78
2024/03/11 12:57:38;;;;;;;6.53;1.55;;;;;;;;;;5006932;28;20065;-78
2024/03/11 13:00:07;;;;;;;6.30;1.52;;;;;;;;;;5008576;28;20041;-78
2024/03/11 13:02:36;;;;;;;5.95;1.40;;;;;;;;;;5006287;28;20032;-75
2024/03/11 13:05:16;;;;;;;5.20;1.30;;;;;;;;;;5006371;28;20037;-77
2024/03/11 13:07:42;;;;;;;4.45;1.05;;;;;;;;;;5009076;28;20041;-77
2024/03/11 13:10:15;;;;;;;5.55;1.13;;;;;;;;;;4993884;28;20083;-78
2024/03/11 13:12:41;;;;;;;6.18;1.13;;;;;;;;;;5001123;28;20056;-78
2024/03/11 13:15:09;;;;;;;3.92;0.80;;;;;;;;;;4997739;28;20018;-77
2024/03/11 13:17:35;;;;;;;6.13;1.20;;;;;;;;;;4996902;28;20034;-76
2024/03/11 13:20:06;;;;;;;4.13;1.05;;;;;;;;;;4998142;28;20033;-76
2024/03/11 13:22:33;;;;;;;4.93;1.30;;;;;;;;;;5004035;28;20056;-78
2024/03/11 13:25:05;;;;;;;8.38;1.30;;;;;;;;;;4995911;28;20053;-77
2024/03/11 13:27:35;;;;;;;4.68;0.98;;;;;;;;;;4997767;28;20045;-76
2024/03/11 13:30:02;;;;;;;4.57;1.00;;;;;;;;;;5008918;28;20029;-83
2024/03/11 13:32:29;;;;;;;4.78;1.10;;;;;;;;;;4999757;28;20029;-83
2024/03/11 13:34:55;;;;;;;4.70;0.85;;;;;;;;;;4999739;28;20026;-84
2024/03/11 13:37:22;;;;;;;7.22;1.40;;;;;;;;;;4999130;28;20056;-81
2024/03/11 13:39:48;;;;;;;5.13;1.00;;;;;;;;;;5008388;28;20041;-82
2024/03/11 13:42:15;;;;;;;5.20;0.93;;;;;;;;;;5009401;28;20033;-83
2024/03/11 13:44:42;;;;;;;4.28;1.10;;;;;;;;;;5008748;28;20644;-82
2024/03/11 13:47:08;;;;;;;6.18;1.20;;;;;;;;;;5001590;28;20060;-83
2024/03/11 13:49:35;;;;;;;3.85;0.98;;;;;;;;;;5008515;28;20029;-83
2024/03/11 13:52:01;;;;;;;5.80;1.10;;;;;;;;;;5011693;28;20029;-82
2024/03/11 13:54:33;;;;;;;5.55;1.50;;;;;;;;;;5005889;28;20677;-82
2024/03/11 13:57:00;;;;;;;5.85;1.45;;;;;;;;;;5006157;28;20029;-84
2024/03/11 13:59:26;;;;;;;4.95;1.15;;;;;;;;;;5005137;28;20773;-84
2024/03/11 14:01:52;;;;;;;4.80;0.95;;;;;;;;;;5005820;28;20041;-82
2024/03/11 14:04:20;;;;;;;4.47;1.20;;;;;;;;;;5004233;28;20032;-82
2024/03/11 14:06:47;;;;;;;6.15;1.10;;;;;;;;;;5014979;28;20033;-82
2024/03/11 14:09:17;;;;;;;7.95;1.50;;;;;;;;;;5019171;28;20139;-82
2024/03/11 14:11:43;;;;;;;6.45;1.27;;;;;;;;;;5018075;28;20034;-81
2024/03/11 14:14:13;;;;;;;3.80;1.10;;;;;;;;;;5016996;28;20170;-83
2024/03/11 14:16:49;;;;;;;5.15;1.15;;;;;;;;;;5022004;28;20049;-82
2024/03/11 14:19:19;;;;;;;5.10;1.00;;;;;;;;;;5016435;28;20025;-83
2024/03/11 14:21:45;;;;;;;6.45;1.30;;;;;;;;;;5015389;28;20151;-82
2024/03/11 14:24:13;;;;;;;4.38;1.00;;;;;;;;;;5013837;28;20033;-83
2024/03/11 14:26:40;;;;;;;5.90;1.20;;;;;;;;;;5016798;28;20151;-84
2024/03/11 14:29:07;;;;;;;4.50;1.10;;;;;;;;;;5015594;28;20138;-83
2024/03/11 14:31:33;;;;;;;5.97;1.40;;;;;;;;;;5014961;28;20056;-83
2024/03/11 14:34:04;;;;;;;4.55;1.00;;;;;;;;;;5020359;28;20029;-82
2024/03/11 14:36:30;;;;;;;4.38;1.27;;;;;;;;;;5014297;28;20029;-83
2024/03/11 14:38:57;;;;;;;6.97;1.77;;;;;;;;;;5019229;28;20794;-84
2024/03/11 14:41:23;;;;;;;6.93;1.67;;;;;;;;;;5017618;28;20101;-83
2024/03/11 14:43:50;;;;;;;8.85;2.25;;;;;;;;;;5032481;28;20053;-85
2024/03/11 14:46:24;;;;;;;6.30;1.65;;;;;;;;;;5043204;28;20026;-85
2024/03/11 14:48:50;;;;;;;6.75;1.63;;;;;;;;;;5031815;28;20616;-85
2024/03/11 14:51:21;;;;;;;6.40;1.45;;;;;;;;;;5027102;28;20045;-82
2024/03/11 14:53:47;;;;;;;5.68;1.40;;;;;;;;;;5023597;28;20111;-84
2024/03/11 14:56:14;;;;;;;4.45;1.10;;;;;;;;;;5026894;28;20033;-82
2024/03/11 14:58:40;;;;;;;5.60;1.25;;;;;;;;;;5021516;28;20029;-80